Time;durP1;ratioP1;P1;durP2;ratioP2;P2;SDS_P1;SDS_P2;PMS_P1;PMS_P2;Temp;Humidity;BMP_temperature;BMP_pressure;BME280_temperature;BME280_humidity;BME280_pressure;Samples;Min_cycle;Max_cycle;Signal;HPM_P1;HPM_P2
2023/04/20 00:00:34;;;;;;;6.07;4.10;;;;;;;;;;6216484;23;20376;-65
2023/04/20 00:03:00;;;;;;;4.30;4.00;;;;;;;;;;6216980;23;20382;-65
2023/04/20 00:05:26;;;;;;;4.87;4.47;;;;;;;;;;6216105;23;20772;-65
2023/04/20 00:07:53;;;;;;;4.90;4.70;;;;;;;;;;6216432;23;20438;-65
2023/04/20 00:10:19;;;;;;;4.97;4.77;;;;;;;;;;6216278;23;20386;-65
2023/04/20 00:12:45;;;;;;;9.03;5.40;;;;;;;;;;6217203;23;20399;-66
2023/04/20 00:15:11;;;;;;;8.13;5.87;;;;;;;;;;6216232;23;20410;-65
2023/04/20 00:17:38;;;;;;;5.73;5.17;;;;;;;;;;6217657;23;20394;-65
2023/04/20 00:20:05;;;;;;;8.53;5.07;;;;;;;;;;6216646;23;20375;-65
2023/04/20 00:22:31;;;;;;;11.90;5.57;;;;;;;;;;6216260;23;20387;-66
2023/04/20 00:24:57;;;;;;;5.63;4.87;;;;;;;;;;6216129;23;20377;-65
2023/04/20 00:27:23;;;;;;;6.90;4.33;;;;;;;;;;6216146;23;20445;-65
2023/04/20 00:29:48;;;;;;;3.40;3.30;;;;;;;;;;6216277;23;20383;-65
2023/04/20 00:32:14;;;;;;;3.63;3.43;;;;;;;;;;6216007;23;20705;-64
2023/04/20 00:34:40;;;;;;;4.77;4.30;;;;;;;;;;6215894;23;20437;-65
2023/04/20 00:37:06;;;;;;;3.97;3.87;;;;;;;;;;6216505;23;20372;-65
2023/04/20 00:39:32;;;;;;;3.47;3.37;;;;;;;;;;6216082;23;20426;-65
2023/04/20 00:42:08;;;;;;;3.77;3.60;;;;;;;;;;6214161;23;20410;-65
2023/04/20 00:44:34;;;;;;;3.40;3.27;;;;;;;;;;6214212;23;20743;-65
2023/04/20 00:47:00;;;;;;;3.63;3.53;;;;;;;;;;6216059;23;20427;-65
2023/04/20 00:49:28;;;;;;;4.20;3.80;;;;;;;;;;6214177;23;20402;-65
2023/04/20 00:51:55;;;;;;;3.70;3.47;;;;;;;;;;6216055;23;20423;-65
2023/04/20 00:54:21;;;;;;;3.27;3.17;;;;;;;;;;6216055;23;20414;-65
2023/04/20 00:56:48;;;;;;;3.57;3.43;;;;;;;;;;6216164;23;20709;-65
2023/04/20 00:59:14;;;;;;;4.07;3.90;;;;;;;;;;6216013;23;20722;-65
2023/04/20 01:01:41;;;;;;;3.27;3.27;;;;;;;;;;6215664;23;20379;-65
2023/04/20 01:04:08;;;;;;;3.73;3.17;;;;;;;;;;6215689;23;20853;-65
2023/04/20 01:06:34;;;;;;;3.40;3.20;;;;;;;;;;6215783;23;20376;-65
2023/04/20 01:09:00;;;;;;;3.30;3.10;;;;;;;;;;6215487;23;20431;-67
2023/04/20 01:11:26;;;;;;;6.37;3.40;;;;;;;;;;6215944;23;20375;-66
2023/04/20 01:13:52;;;;;;;3.30;3.20;;;;;;;;;;6215999;23;20387;-65
2023/04/20 01:16:18;;;;;;;3.40;3.13;;;;;;;;;;6215496;23;20426;-66
2023/04/20 01:18:46;;;;;;;4.73;3.10;;;;;;;;;;6215923;23;20394;-66
2023/04/20 01:21:12;;;;;;;4.23;3.60;;;;;;;;;;6215887;23;20383;-65
2023/04/20 01:23:38;;;;;;;3.10;3.00;;;;;;;;;;6215834;23;20890;-68
2023/04/20 01:26:12;;;;;;;3.67;3.37;;;;;;;;;;6215874;23;20406;-66
2023/04/20 01:28:38;;;;;;;9.27;3.33;;;;;;;;;;6215714;23;20437;-66
2023/04/20 01:31:05;;;;;;;3.50;3.40;;;;;;;;;;6215388;23;20379;-71
2023/04/20 01:33:31;;;;;;;3.07;2.97;;;;;;;;;;6215808;23;20712;-66
2023/04/20 01:35:57;;;;;;;3.50;3.40;;;;;;;;;;6215576;23;20840;-66
2023/04/20 01:38:23;;;;;;;3.10;2.60;;;;;;;;;;6215812;23;20379;-67
2023/04/20 01:40:50;;;;;;;2.53;2.43;;;;;;;;;;6215373;23;20367;-65
2023/04/20 01:43:16;;;;;;;2.70;2.60;;;;;;;;;;6215893;23;20430;-65
2023/04/20 01:45:42;;;;;;;2.83;2.73;;;;;;;;;;6215688;23;20838;-65
2023/04/20 01:48:08;;;;;;;5.63;2.67;;;;;;;;;;6215379;23;20450;-65
2023/04/20 01:50:34;;;;;;;5.90;2.87;;;;;;;;;;6215749;23;20873;-65
2023/04/20 01:53:00;;;;;;;2.70;2.60;;;;;;;;;;6215694;23;20414;-65
2023/04/20 01:55:26;;;;;;;2.70;2.60;;;;;;;;;;6215666;23;20461;-65
2023/04/20 01:57:52;;;;;;;2.00;2.00;;;;;;;;;;6215408;23;20375;-65
2023/04/20 02:00:18;;;;;;;2.47;2.37;;;;;;;;;;6215224;23;20861;-64
2023/04/20 02:02:44;;;;;;;2.33;2.23;;;;;;;;;;6215646;23;20429;-66
2023/04/20 02:05:10;;;;;;;2.63;2.20;;;;;;;;;;6215877;23;20375;-65
2023/04/20 02:07:36;;;;;;;2.93;2.47;;;;;;;;;;6215479;23;20446;-64
2023/04/20 02:10:03;;;;;;;2.73;2.30;;;;;;;;;;6215457;23;20381;-65
2023/04/20 02:12:29;;;;;;;2.63;2.60;;;;;;;;;;6215386;23;20423;-66
2023/04/20 02:14:55;;;;;;;2.93;2.07;;;;;;;;;;6215461;23;20478;-65
2023/04/20 02:17:21;;;;;;;3.40;2.13;;;;;;;;;;6215360;23;20854;-65
2023/04/20 02:19:47;;;;;;;2.03;1.97;;;;;;;;;;6215173;23;20371;-65
2023/04/20 02:22:13;;;;;;;1.90;1.90;;;;;;;;;;6215087;23;20367;-65
2023/04/20 02:24:40;;;;;;;2.03;2.00;;;;;;;;;;6214927;23;20378;-64
2023/04/20 02:27:06;;;;;;;2.07;2.07;;;;;;;;;;6214902;23;20398;-65
2023/04/20 02:29:32;;;;;;;2.13;2.13;;;;;;;;;;6215375;23;20391;-65
2023/04/20 02:31:58;;;;;;;2.10;2.10;;;;;;;;;;6215476;23;20398;-65
2023/04/20 02:34:24;;;;;;;1.60;1.60;;;;;;;;;;6215202;23;20372;-65
2023/04/20 02:36:50;;;;;;;1.83;1.83;;;;;;;;;;6215442;23;20363;-65
2023/04/20 02:39:16;;;;;;;3.27;2.43;;;;;;;;;;6215450;23;20386;-65
2023/04/20 02:41:42;;;;;;;1.80;1.80;;;;;;;;;;6215500;23;20375;-65
2023/04/20 02:44:08;;;;;;;2.60;1.83;;;;;;;;;;6215906;23;20518;-65
2023/04/20 02:46:34;;;;;;;4.93;1.97;;;;;;;;;;6215614;23;20417;-65
2023/04/20 02:49:02;;;;;;;2.90;2.80;;;;;;;;;;6217241;23;20442;-65
2023/04/20 02:51:30;;;;;;;2.33;2.33;;;;;;;;;;6217157;23;20374;-65
2023/04/20 02:53:56;;;;;;;1.70;1.60;;;;;;;;;;6217306;23;20399;-65
2023/04/20 02:56:22;;;;;;;2.27;2.17;;;;;;;;;;6217354;23;20445;-65
2023/04/20 02:58:50;;;;;;;8.47;1.80;;;;;;;;;;6217144;23;20376;-65
2023/04/20 03:01:16;;;;;;;1.90;1.80;;;;;;;;;;6217137;23;20386;-65
2023/04/20 03:03:42;;;;;;;2.20;2.17;;;;;;;;;;6216899;23;20470;-64
2023/04/20 03:06:08;;;;;;;1.83;1.80;;;;;;;;;;6217481;23;20368;-65
2023/04/20 03:08:36;;;;;;;1.80;1.70;;;;;;;;;;6217041;23;20920;-65
2023/04/20 03:11:02;;;;;;;2.77;2.57;;;;;;;;;;6217165;23;20885;-66
2023/04/20 03:13:27;;;;;;;2.10;2.00;;;;;;;;;;6216801;23;20438;-65
2023/04/20 03:15:53;;;;;;;1.50;1.50;;;;;;;;;;6216740;23;20371;-65
2023/04/20 03:18:19;;;;;;;2.50;2.13;;;;;;;;;;6216675;23;20386;-65
2023/04/20 03:20:45;;;;;;;1.70;1.60;;;;;;;;;;6216965;23;20371;-65
2023/04/20 03:23:11;;;;;;;3.47;1.90;;;;;;;;;;6216821;23;20918;-65
2023/04/20 03:25:37;;;;;;;2.37;2.33;;;;;;;;;;6217255;23;20450;-65
2023/04/20 03:28:03;;;;;;;2.00;2.00;;;;;;;;;;6216963;23;20426;-65
2023/04/20 03:30:29;;;;;;;2.97;1.70;;;;;;;;;;6216577;23;20433;-65
2023/04/20 03:32:55;;;;;;;2.30;2.20;;;;;;;;;;6215143;23;20474;-65
2023/04/20 03:35:21;;;;;;;2.60;1.80;;;;;;;;;;6217335;23;20379;-65
2023/04/20 03:37:47;;;;;;;2.00;1.90;;;;;;;;;;6216645;23;20414;-64
2023/04/20 03:40:13;;;;;;;2.67;2.67;;;;;;;;;;6216666;23;20861;-65
2023/04/20 03:42:39;;;;;;;1.87;1.87;;;;;;;;;;6216589;23;20438;-65
2023/04/20 03:45:05;;;;;;;3.23;1.90;;;;;;;;;;6216445;23;20846;-65
2023/04/20 03:47:32;;;;;;;1.77;1.67;;;;;;;;;;6216365;23;20439;-65
2023/04/20 03:49:58;;;;;;;2.10;2.03;;;;;;;;;;6216757;23;20387;-65
2023/04/20 03:52:24;;;;;;;2.57;2.47;;;;;;;;;;6216448;23;20765;-65
2023/04/20 03:54:50;;;;;;;1.80;1.80;;;;;;;;;;6216484;23;20406;-65
2023/04/20 03:57:16;;;;;;;2.17;2.07;;;;;;;;;;6216271;23;20446;-65
2023/04/20 03:59:42;;;;;;;5.27;2.67;;;;;;;;;;6216509;23;20384;-65
2023/04/20 04:02:09;;;;;;;2.20;2.20;;;;;;;;;;6216933;23;20367;-65
2023/04/20 04:04:35;;;;;;;2.80;2.70;;;;;;;;;;6216657;23;20379;-64
2023/04/20 04:07:01;;;;;;;5.93;2.40;;;;;;;;;;6216308;23;20394;-65
2023/04/20 04:09:28;;;;;;;4.67;1.90;;;;;;;;;;6216331;23;20367;-64
2023/04/20 04:11:54;;;;;;;2.40;2.30;;;;;;;;;;6216149;23;20868;-65
2023/04/20 04:14:20;;;;;;;1.80;1.80;;;;;;;;;;6216096;23;20880;-67
2023/04/20 04:16:46;;;;;;;2.17;2.03;;;;;;;;;;6216634;23;20453;-65
2023/04/20 04:19:12;;;;;;;2.20;2.10;;;;;;;;;;6216491;23;20733;-65
2023/04/20 04:21:38;;;;;;;2.70;2.60;;;;;;;;;;6216244;23;20411;-65
2023/04/20 04:24:04;;;;;;;2.50;2.40;;;;;;;;;;6216492;23;20367;-65
2023/04/20 04:26:30;;;;;;;2.03;1.93;;;;;;;;;;6216441;23;20386;-66
2023/04/20 04:28:57;;;;;;;2.13;2.13;;;;;;;;;;6215925;23;20431;-65
2023/04/20 04:31:23;;;;;;;2.20;2.10;;;;;;;;;;6216005;23;20383;-65
2023/04/20 04:33:49;;;;;;;2.10;2.10;;;;;;;;;;6216384;23;20375;-68
2023/04/20 04:36:16;;;;;;;2.37;2.37;;;;;;;;;;6215908;23;20378;-65
2023/04/20 04:38:45;;;;;;;2.33;2.27;;;;;;;;;;6216180;23;20410;-68
2023/04/20 04:41:12;;;;;;;2.37;2.17;;;;;;;;;;6216168;23;20380;-72
2023/04/20 04:43:38;;;;;;;6.30;2.57;;;;;;;;;;6215871;23;20442;-68
2023/04/20 04:46:12;;;;;;;1.73;1.63;;;;;;;;;;6215985;23;20375;-65
2023/04/20 04:48:39;;;;;;;2.50;2.30;;;;;;;;;;6216133;23;20512;-65
2023/04/20 04:51:05;;;;;;;2.90;2.70;;;;;;;;;;6216196;23;20386;-65
2023/04/20 04:53:31;;;;;;;2.23;2.23;;;;;;;;;;6216267;23;20474;-66
2023/04/20 04:55:57;;;;;;;2.20;2.13;;;;;;;;;;6216537;23;20410;-65
2023/04/20 04:58:23;;;;;;;2.13;2.10;;;;;;;;;;6215794;23;20392;-66
2023/04/20 05:00:50;;;;;;;3.73;2.23;;;;;;;;;;6216100;23;20376;-66
2023/04/20 05:03:16;;;;;;;2.07;2.03;;;;;;;;;;6215855;23;20856;-65
2023/04/20 05:05:42;;;;;;;3.03;1.73;;;;;;;;;;6216160;23;20375;-68
2023/04/20 05:08:08;;;;;;;2.43;2.30;;;;;;;;;;6215692;23;20430;-64
2023/04/20 05:10:34;;;;;;;4.17;2.90;;;;;;;;;;6215585;23;20743;-65
2023/04/20 05:13:00;;;;;;;5.90;5.70;;;;;;;;;;6215704;23;20454;-67
2023/04/20 05:15:26;;;;;;;6.77;3.90;;;;;;;;;;6215880;23;20374;-66
2023/04/20 05:17:52;;;;;;;3.30;2.83;;;;;;;;;;6215944;23;20695;-65
2023/04/20 05:20:19;;;;;;;2.60;2.50;;;;;;;;;;6215674;23;20769;-68
2023/04/20 05:22:45;;;;;;;2.60;2.40;;;;;;;;;;6216331;23;20381;-65
2023/04/20 05:25:11;;;;;;;3.30;3.10;;;;;;;;;;6215684;23;20367;-65
2023/04/20 05:27:37;;;;;;;1.90;1.80;;;;;;;;;;6214051;23;20488;-65
2023/04/20 05:30:03;;;;;;;1.97;1.97;;;;;;;;;;6215404;23;20375;-65
2023/04/20 05:32:29;;;;;;;3.53;2.80;;;;;;;;;;6215680;23;20813;-65
2023/04/20 05:34:57;;;;;;;2.93;2.17;;;;;;;;;;6215613;23;20837;-64
2023/04/20 05:37:23;;;;;;;2.63;2.33;;;;;;;;;;6215898;23;20437;-65
2023/04/20 05:39:49;;;;;;;3.33;3.03;;;;;;;;;;6215690;23;20383;-66
2023/04/20 05:42:14;;;;;;;3.23;2.03;;;;;;;;;;6215403;23;20506;-65
2023/04/20 05:44:42;;;;;;;4.13;2.53;;;;;;;;;;6215170;23;20813;-68
2023/04/20 05:47:08;;;;;;;7.87;2.63;;;;;;;;;;6215108;23;20386;-65
2023/04/20 05:49:35;;;;;;;2.10;2.00;;;;;;;;;;6215306;23;20386;-65
2023/04/20 05:52:02;;;;;;;2.43;2.43;;;;;;;;;;6215382;23;20421;-65
2023/04/20 05:54:28;;;;;;;2.93;2.57;;;;;;;;;;6215773;23;20391;-65
2023/04/20 05:56:54;;;;;;;2.50;2.00;;;;;;;;;;6215620;23;20453;-64
2023/04/20 05:59:21;;;;;;;2.80;2.70;;;;;;;;;;6215210;23;20963;-65
2023/04/20 06:01:47;;;;;;;3.37;2.20;;;;;;;;;;6215493;23;20422;-64
2023/04/20 06:04:13;;;;;;;4.27;2.83;;;;;;;;;;6215627;23;20712;-65
2023/04/20 06:06:39;;;;;;;2.57;2.47;;;;;;;;;;6215378;23;20897;-69
2023/04/20 06:09:05;;;;;;;3.20;2.60;;;;;;;;;;6215525;23;20438;-65
2023/04/20 06:11:31;;;;;;;1.80;1.80;;;;;;;;;;6215166;23;20376;-64
2023/04/20 06:13:57;;;;;;;3.07;2.57;;;;;;;;;;6214899;23;20433;-64
2023/04/20 06:16:23;;;;;;;2.90;2.80;;;;;;;;;;6215261;23;20365;-64
2023/04/20 06:18:49;;;;;;;2.60;2.43;;;;;;;;;;6215549;23;20375;-66
2023/04/20 06:21:16;;;;;;;3.03;2.93;;;;;;;;;;6215971;23;20833;-65
2023/04/20 06:23:43;;;;;;;3.33;2.80;;;;;;;;;;6215754;23;20414;-65
2023/04/20 06:26:09;;;;;;;3.07;2.97;;;;;;;;;;6217371;23;20367;-65
2023/04/20 06:28:35;;;;;;;3.17;3.07;;;;;;;;;;6217396;23;20438;-64
2023/04/20 06:31:01;;;;;;;6.73;2.90;;;;;;;;;;6217398;23;20379;-64
2023/04/20 06:33:28;;;;;;;3.07;2.87;;;;;;;;;;6217289;23;20401;-65
2023/04/20 06:35:55;;;;;;;3.40;3.10;;;;;;;;;;6217578;23;20813;-65
2023/04/20 06:38:21;;;;;;;3.00;2.90;;;;;;;;;;6217407;23;20379;-65
2023/04/20 06:40:47;;;;;;;4.23;3.03;;;;;;;;;;6217334;23;20469;-64
2023/04/20 06:43:13;;;;;;;3.03;2.93;;;;;;;;;;6217029;23;20920;-65
2023/04/20 06:45:39;;;;;;;3.73;3.43;;;;;;;;;;6217052;23;20379;-65
2023/04/20 06:48:06;;;;;;;3.10;3.00;;;;;;;;;;6217251;23;20431;-64
2023/04/20 06:50:32;;;;;;;3.03;2.93;;;;;;;;;;6217063;23;20402;-65
2023/04/20 06:52:58;;;;;;;2.57;2.57;;;;;;;;;;6217188;23;20396;-64
2023/04/20 06:55:24;;;;;;;3.30;3.00;;;;;;;;;;6216954;23;20372;-65
2023/04/20 06:57:50;;;;;;;2.53;2.53;;;;;;;;;;6217216;23;20381;-64
2023/04/20 07:00:16;;;;;;;2.97;2.87;;;;;;;;;;6217188;23;20913;-64
2023/04/20 07:02:46;;;;;;;3.10;3.00;;;;;;;;;;6217247;23;20407;-64
2023/04/20 07:05:13;;;;;;;6.63;3.90;;;;;;;;;;6217256;23;20677;-64
2023/04/20 07:07:39;;;;;;;4.23;4.03;;;;;;;;;;6217179;23;20419;-65
2023/04/20 07:10:06;;;;;;;4.30;3.93;;;;;;;;;;6216820;23;20394;-65
2023/04/20 07:12:34;;;;;;;3.13;2.93;;;;;;;;;;6217217;23;20371;-65
2023/04/20 07:15:01;;;;;;;3.47;3.27;;;;;;;;;;6217103;23;20379;-65
2023/04/20 07:17:28;;;;;;;3.27;3.10;;;;;;;;;;6215175;23;20390;-64
2023/04/20 07:19:55;;;;;;;2.73;2.63;;;;;;;;;;6217124;23;20390;-63
2023/04/20 07:22:21;;;;;;;5.83;3.30;;;;;;;;;;6216726;23;20842;-66
2023/04/20 07:24:46;;;;;;;2.67;2.57;;;;;;;;;;6216087;23;20402;-65
2023/04/20 07:27:12;;;;;;;4.50;2.67;;;;;;;;;;6216650;23;20379;-65
2023/04/20 07:29:39;;;;;;;2.87;2.77;;;;;;;;;;6216595;23;20414;-66
2023/04/20 07:32:05;;;;;;;2.70;2.60;;;;;;;;;;6217047;23;20897;-65
2023/04/20 07:34:31;;;;;;;2.87;2.63;;;;;;;;;;6216398;23;20470;-65
2023/04/20 07:40:00;;;;;;;3.07;2.97;;;;;;;;;;6216628;23;20406;-66
2023/04/20 07:42:26;;;;;;;3.10;3.00;;;;;;;;;;6214817;23;20427;-65
2023/04/20 07:44:52;;;;;;;3.17;3.10;;;;;;;;;;6216784;23;20406;-65
2023/04/20 07:47:18;;;;;;;3.60;3.30;;;;;;;;;;6216599;23;20474;-64
2023/04/20 07:49:44;;;;;;;3.67;3.37;;;;;;;;;;6216620;23;20423;-65
2023/04/20 07:52:11;;;;;;;2.50;2.40;;;;;;;;;;6216525;23;20382;-66
2023/04/20 07:54:37;;;;;;;2.40;2.40;;;;;;;;;;6216345;23;20876;-65
2023/04/20 07:57:03;;;;;;;3.60;3.40;;;;;;;;;;6190067;23;20524;-66
2023/04/20 07:59:29;;;;;;;3.80;3.33;;;;;;;;;;6216611;23;20470;-65
2023/04/20 08:02:00;;;;;;;3.93;3.73;;;;;;;;;;6216173;23;20842;-66
2023/04/20 08:04:26;;;;;;;2.87;2.80;;;;;;;;;;6216397;23;20846;-65
2023/04/20 08:06:52;;;;;;;4.10;3.80;;;;;;;;;;6216326;23;20434;-66
2023/04/20 08:09:18;;;;;;;3.27;3.17;;;;;;;;;;6216024;23;20427;-65
2023/04/20 08:11:47;;;;;;;2.70;2.60;;;;;;;;;;6216619;23;20409;-65
2023/04/20 08:14:14;;;;;;;3.17;3.03;;;;;;;;;;6216235;23;20467;-66
2023/04/20 08:16:40;;;;;;;3.30;3.10;;;;;;;;;;6216048;23;20380;-65
2023/04/20 08:19:09;;;;;;;3.07;2.97;;;;;;;;;;6215246;23;20394;-65
2023/04/20 08:21:38;;;;;;;4.77;3.83;;;;;;;;;;6216078;23;20845;-65
2023/04/20 08:24:04;;;;;;;5.80;3.23;;;;;;;;;;6216106;23;20368;-65
2023/04/20 08:26:30;;;;;;;3.37;3.23;;;;;;;;;;6216056;23;20371;-65
2023/04/20 08:28:56;;;;;;;3.20;3.10;;;;;;;;;;6216140;23;20431;-65
2023/04/20 08:31:22;;;;;;;3.20;3.00;;;;;;;;;;6214541;23;20386;-66
2023/04/20 08:33:48;;;;;;;3.17;3.03;;;;;;;;;;6216111;23;20384;-65
2023/04/20 08:36:14;;;;;;;3.23;3.07;;;;;;;;;;6216124;23;20710;-65
2023/04/20 08:38:40;;;;;;;3.80;3.60;;;;;;;;;;6216360;23;20463;-64
2023/04/20 08:41:06;;;;;;;3.13;3.13;;;;;;;;;;6216010;23;20396;-65
2023/04/20 08:43:32;;;;;;;6.87;3.60;;;;;;;;;;6215798;23;20430;-66
2023/04/20 08:46:01;;;;;;;3.60;3.40;;;;;;;;;;6216162;23;20379;-65
2023/04/20 08:48:30;;;;;;;2.87;2.87;;;;;;;;;;6216728;23;20438;-65
2023/04/20 08:50:56;;;;;;;7.03;3.60;;;;;;;;;;6216124;23;20379;-65
2023/04/20 08:53:22;;;;;;;4.23;3.13;;;;;;;;;;6216304;23;20481;-64
2023/04/20 08:55:49;;;;;;;5.13;3.43;;;;;;;;;;6216243;23;20406;-65
2023/04/20 08:58:16;;;;;;;3.53;3.37;;;;;;;;;;6215768;23;20849;-66
2023/04/20 09:00:46;;;;;;;4.13;3.90;;;;;;;;;;6216088;23;20402;-67
2023/04/20 09:03:12;;;;;;;4.10;3.80;;;;;;;;;;6214213;23;20387;-66
2023/04/20 09:05:38;;;;;;;3.37;3.27;;;;;;;;;;6215885;23;20505;-67
2023/04/20 09:08:05;;;;;;;6.90;2.17;;;;;;;;;;6215752;23;20423;-65
2023/04/20 09:10:43;;;;;;;3.20;3.10;;;;;;;;;;6215662;23;20382;-65
2023/04/20 09:13:20;;;;;;;3.03;2.87;;;;;;;;;;6216292;23;20454;-65
2023/04/20 09:15:46;;;;;;;2.33;2.33;;;;;;;;;;6215712;23;20359;-65
2023/04/20 09:18:13;;;;;;;2.50;2.40;;;;;;;;;;6215947;23;20761;-65
2023/04/20 09:20:40;;;;;;;3.40;3.20;;;;;;;;;;6214159;23;20861;-66
2023/04/20 09:23:20;;;;;;;3.70;3.50;;;;;;;;;;6216372;23;20371;-66
2023/04/20 09:25:46;;;;;;;2.93;2.60;;;;;;;;;;6216051;23;20445;-65
2023/04/20 09:28:13;;;;;;;2.87;2.77;;;;;;;;;;6215772;23;20439;-66
2023/04/20 09:30:43;;;;;;;5.60;3.00;;;;;;;;;;6215861;23;20375;-65
2023/04/20 09:33:13;;;;;;;4.07;3.03;;;;;;;;;;6215946;23;20742;-65
2023/04/20 09:35:40;;;;;;;3.30;2.90;;;;;;;;;;6215895;23;20402;-66
2023/04/20 09:38:07;;;;;;;3.87;2.80;;;;;;;;;;6215845;23;20521;-66
2023/04/20 09:40:33;;;;;;;5.30;2.90;;;;;;;;;;6215706;23;20367;-66
2023/04/20 09:43:03;;;;;;;2.80;2.60;;;;;;;;;;6215249;23;20423;-65
2023/04/20 09:45:29;;;;;;;2.97;2.63;;;;;;;;;;6215498;23;20383;-64
2023/04/20 09:47:55;;;;;;;6.87;3.43;;;;;;;;;;6213855;23;20480;-64
2023/04/20 09:50:21;;;;;;;3.10;2.90;;;;;;;;;;6215456;23;20379;-66
2023/04/20 09:52:48;;;;;;;2.23;2.13;;;;;;;;;;6215722;23;20370;-66
2023/04/20 09:55:14;;;;;;;3.00;3.00;;;;;;;;;;6189801;23;20387;-68
2023/04/20 09:57:40;;;;;;;2.60;2.50;;;;;;;;;;6219002;23;20375;-66
2023/04/20 10:00:09;;;;;;;3.03;2.83;;;;;;;;;;6218870;23;20458;-68
2023/04/20 10:02:35;;;;;;;2.60;2.50;;;;;;;;;;6218736;23;20899;-68
2023/04/20 10:05:02;;;;;;;2.23;2.13;;;;;;;;;;6219099;23;20371;-67
2023/04/20 10:07:29;;;;;;;2.20;2.00;;;;;;;;;;6218596;23;20386;-67
2023/04/20 10:10:09;;;;;;;2.00;2.00;;;;;;;;;;6219074;23;20378;-67
2023/04/20 10:12:51;;;;;;;2.13;2.13;;;;;;;;;;6218706;23;20440;-68
2023/04/20 10:15:18;;;;;;;2.17;2.07;;;;;;;;;;6218716;23;20366;-66
2023/04/20 10:17:44;;;;;;;2.10;2.00;;;;;;;;;;6217190;23;20729;-67
2023/04/20 10:20:19;;;;;;;1.83;1.77;;;;;;;;;;6218630;23;20414;-66
2023/04/20 10:22:46;;;;;;;1.93;1.93;;;;;;;;;;6219026;23;20398;-67
2023/04/20 10:25:19;;;;;;;1.83;1.83;;;;;;;;;;6219357;23;20678;-65
2023/04/20 10:28:08;;;;;;;2.00;2.00;;;;;;;;;;6218567;23;20454;-66
2023/04/20 10:30:34;;;;;;;2.27;2.10;;;;;;;;;;6219482;23;20367;-66
2023/04/20 10:33:11;;;;;;;2.53;2.47;;;;;;;;;;6218295;23;20775;-70
2023/04/20 10:35:46;;;;;;;2.13;2.00;;;;;;;;;;6218469;23;20389;-71
2023/04/20 10:38:13;;;;;;;2.10;2.00;;;;;;;;;;6218887;23;20394;-67
2023/04/20 10:40:39;;;;;;;2.47;2.37;;;;;;;;;;6218579;23;20481;-67
2023/04/20 10:43:17;;;;;;;2.10;2.00;;;;;;;;;;6218233;23;20445;-65
2023/04/20 10:45:43;;;;;;;2.80;2.70;;;;;;;;;;6218809;23;20744;-67
2023/04/20 10:48:09;;;;;;;2.67;2.57;;;;;;;;;;6218753;23;20979;-70
2023/04/20 10:50:36;;;;;;;2.27;2.07;;;;;;;;;;6218459;23;20876;-66
2023/04/20 10:53:03;;;;;;;2.30;2.30;;;;;;;;;;6216797;23;20399;-69
2023/04/20 10:55:29;;;;;;;2.30;1.90;;;;;;;;;;6218784;23;20386;-68
2023/04/20 10:57:55;;;;;;;2.00;1.90;;;;;;;;;;6218622;23;20486;-67
2023/04/20 11:00:22;;;;;;;1.53;1.53;;;;;;;;;;6218660;23;20387;-66
2023/04/20 11:02:49;;;;;;;1.60;1.60;;;;;;;;;;6218270;23;20837;-65
2023/04/20 11:05:16;;;;;;;1.73;1.73;;;;;;;;;;6218521;23;20379;-66
2023/04/20 11:07:58;;;;;;;2.70;1.47;;;;;;;;;;6216903;23;20410;-66
2023/04/20 11:10:38;;;;;;;2.20;2.10;;;;;;;;;;6217193;23;20379;-66
2023/04/20 11:13:04;;;;;;;2.00;1.30;;;;;;;;;;6215226;23;20874;-66
2023/04/20 11:15:31;;;;;;;2.83;1.60;;;;;;;;;;6215371;23;20394;-66
2023/04/20 11:18:05;;;;;;;4.10;1.93;;;;;;;;;;6216894;23;20378;-66
2023/04/20 11:20:31;;;;;;;2.57;2.37;;;;;;;;;;6217192;23;20677;-66
2023/04/20 11:22:58;;;;;;;1.67;1.67;;;;;;;;;;6216604;23;20383;-65
2023/04/20 11:25:25;;;;;;;2.20;2.10;;;;;;;;;;6216718;23;20378;-66
2023/04/20 11:27:51;;;;;;;2.20;2.00;;;;;;;;;;6216563;23;20462;-66
2023/04/20 11:30:18;;;;;;;2.17;2.17;;;;;;;;;;6217053;23;20407;-65
2023/04/20 11:32:52;;;;;;;1.87;1.87;;;;;;;;;;6217068;23;20447;-65
2023/04/20 11:35:18;;;;;;;1.17;1.17;;;;;;;;;;6216713;23;20359;-66
2023/04/20 11:37:49;;;;;;;3.77;2.10;;;;;;;;;;6216888;23;20806;-66
2023/04/20 11:40:16;;;;;;;1.80;1.70;;;;;;;;;;6216946;23;20379;-65
2023/04/20 11:42:42;;;;;;;2.20;1.93;;;;;;;;;;6216564;23;20754;-65
2023/04/20 11:45:10;;;;;;;1.80;1.80;;;;;;;;;;6215021;23;20464;-66
2023/04/20 11:47:37;;;;;;;1.10;1.10;;;;;;;;;;6216656;23;20422;-66
2023/04/20 11:50:03;;;;;;;1.30;1.20;;;;;;;;;;6216893;23;20379;-66
2023/04/20 11:52:29;;;;;;;1.20;1.20;;;;;;;;;;6216819;23;20375;-65
2023/04/20 11:54:55;;;;;;;1.43;1.30;;;;;;;;;;6216425;23;20889;-67
2023/04/20 11:57:22;;;;;;;1.40;1.40;;;;;;;;;;6216442;23;20372;-68
2023/04/20 11:59:48;;;;;;;1.43;1.43;;;;;;;;;;6216676;23;20406;-66
2023/04/20 12:02:15;;;;;;;1.93;1.70;;;;;;;;;;6216421;23;20846;-65
2023/04/20 12:04:41;;;;;;;1.83;1.80;;;;;;;;;;6216508;23;20868;-66
2023/04/20 12:07:07;;;;;;;1.10;1.10;;;;;;;;;;6216692;23;20483;-66
2023/04/20 12:09:37;;;;;;;1.10;1.10;;;;;;;;;;6216541;23;20430;-66
2023/04/20 12:12:07;;;;;;;1.77;1.70;;;;;;;;;;6216956;23;20371;-68
2023/04/20 12:14:33;;;;;;;0.97;0.97;;;;;;;;;;6216405;23;20425;-66
2023/04/20 12:17:00;;;;;;;1.10;1.10;;;;;;;;;;6216576;23;20383;-66
2023/04/20 12:19:26;;;;;;;1.30;1.20;;;;;;;;;;6216075;23;20892;-66
2023/04/20 12:21:52;;;;;;;1.37;1.37;;;;;;;;;;6216571;23;20379;-66
2023/04/20 12:24:18;;;;;;;1.17;1.17;;;;;;;;;;6215594;23;20864;-66
2023/04/20 12:26:44;;;;;;;1.20;1.20;;;;;;;;;;6215824;23;20402;-66
2023/04/20 12:29:10;;;;;;;3.17;2.97;;;;;;;;;;6216062;23;20462;-66
2023/04/20 12:31:36;;;;;;;1.40;1.40;;;;;;;;;;6216372;23;20403;-67
2023/04/20 12:34:03;;;;;;;1.23;1.23;;;;;;;;;;6216298;23;20429;-66
2023/04/20 12:36:29;;;;;;;1.43;1.40;;;;;;;;;;6216401;23;20401;-66
2023/04/20 12:38:55;;;;;;;18.63;4.50;;;;;;;;;;6215704;23;20462;-66
2023/04/20 12:41:22;;;;;;;1.87;1.70;;;;;;;;;;6215681;23;20502;-66
2023/04/20 12:43:49;;;;;;;1.80;1.80;;;;;;;;;;6215510;23;20762;-66
2023/04/20 12:46:15;;;;;;;2.40;2.30;;;;;;;;;;6215327;23;20769;-66
2023/04/20 12:48:41;;;;;;;1.40;1.40;;;;;;;;;;6213893;23;20477;-66
2023/04/20 12:51:07;;;;;;;1.50;1.40;;;;;;;;;;6216015;23;20912;-66
2023/04/20 12:53:33;;;;;;;3.33;1.10;;;;;;;;;;6215668;23;20764;-66
2023/04/20 12:55:59;;;;;;;1.40;1.30;;;;;;;;;;6215970;23;20844;-66
2023/04/20 12:58:25;;;;;;;1.07;1.07;;;;;;;;;;6216126;23;20371;-66
2023/04/20 13:00:51;;;;;;;1.57;1.47;;;;;;;;;;6215730;23;20373;-66
2023/04/20 13:03:17;;;;;;;1.37;1.37;;;;;;;;;;6215727;23;20423;-67
2023/04/20 13:05:43;;;;;;;2.30;2.30;;;;;;;;;;6214297;23;20441;-67
2023/04/20 13:08:09;;;;;;;1.47;1.37;;;;;;;;;;6216002;23;20430;-67
2023/04/20 13:10:36;;;;;;;1.57;1.57;;;;;;;;;;6216080;23;20483;-66
2023/04/20 13:13:02;;;;;;;0.80;0.80;;;;;;;;;;6215993;23;20382;-67
2023/04/20 13:15:28;;;;;;;0.87;0.87;;;;;;;;;;6216388;23;20367;-66
2023/04/20 13:17:54;;;;;;;1.00;1.00;;;;;;;;;;6215948;23;20398;-67
2023/04/20 13:20:20;;;;;;;1.27;1.27;;;;;;;;;;6215954;23;20434;-66
2023/04/20 13:22:46;;;;;;;1.17;1.17;;;;;;;;;;6215727;23;20374;-66
2023/04/20 13:25:12;;;;;;;1.20;1.20;;;;;;;;;;6215971;23;20375;-66
2023/04/20 13:27:38;;;;;;;3.60;1.00;;;;;;;;;;6215819;23;20915;-67
2023/04/20 13:30:05;;;;;;;0.93;0.93;;;;;;;;;;6215723;23;20392;-66
2023/04/20 13:32:31;;;;;;;0.70;0.70;;;;;;;;;;6215488;23;20368;-67
2023/04/20 13:34:57;;;;;;;0.77;0.77;;;;;;;;;;6215710;23;20397;-67
2023/04/20 13:37:23;;;;;;;0.50;0.50;;;;;;;;;;6215576;23;20864;-66
2023/04/20 13:39:49;;;;;;;0.50;0.50;;;;;;;;;;6215498;23;20410;-68
2023/04/20 13:42:15;;;;;;;1.23;0.70;;;;;;;;;;6215322;23;20435;-67
2023/04/20 13:44:41;;;;;;;0.70;0.40;;;;;;;;;;6215820;23;20380;-66
2023/04/20 13:47:07;;;;;;;0.40;0.40;;;;;;;;;;6215745;23;20853;-67
2023/04/20 13:49:33;;;;;;;0.63;0.43;;;;;;;;;;6215311;23;20758;-66
2023/04/20 13:51:59;;;;;;;0.50;0.50;;;;;;;;;;6215480;23;20366;-66
2023/04/20 13:54:25;;;;;;;0.40;0.40;;;;;;;;;;6215406;23;20379;-66
2023/04/20 13:56:51;;;;;;;1.00;1.00;;;;;;;;;;6215804;23;20394;-66
2023/04/20 13:59:17;;;;;;;0.63;0.63;;;;;;;;;;6213712;23;20792;-68
2023/04/20 14:01:43;;;;;;;4.30;3.07;;;;;;;;;;6215339;23;20389;-67
2023/04/20 14:04:09;;;;;;;1.23;1.23;;;;;;;;;;6215700;23;20380;-68
2023/04/20 14:06:35;;;;;;;0.53;0.53;;;;;;;;;;6216346;23;20382;-66
2023/04/20 14:09:01;;;;;;;0.87;0.43;;;;;;;;;;6215577;23;20430;-67
2023/04/20 14:11:27;;;;;;;0.40;0.40;;;;;;;;;;6215355;23;20383;-66
2023/04/20 14:13:53;;;;;;;0.53;0.53;;;;;;;;;;6215558;23;20413;-66
2023/04/20 14:16:19;;;;;;;2.93;0.70;;;;;;;;;;6215514;23;20848;-66
2023/04/20 14:18:45;;;;;;;1.17;1.17;;;;;;;;;;6215419;23;20853;-67
2023/04/20 14:21:11;;;;;;;1.23;1.23;;;;;;;;;;6213599;23;20387;-66
2023/04/20 14:23:37;;;;;;;1.37;1.03;;;;;;;;;;6215731;23;20770;-66
2023/04/20 14:26:03;;;;;;;3.63;1.03;;;;;;;;;;6215305;23;20765;-66
2023/04/20 14:28:30;;;;;;;1.10;1.10;;;;;;;;;;6215090;23;20476;-67
2023/04/20 14:30:56;;;;;;;5.60;1.40;;;;;;;;;;6215233;23;20447;-66
2023/04/20 14:33:22;;;;;;;1.23;1.13;;;;;;;;;;6213727;23;20383;-66
2023/04/20 14:35:48;;;;;;;1.00;1.00;;;;;;;;;;6215652;23;20471;-66
2023/04/20 14:38:14;;;;;;;1.40;1.40;;;;;;;;;;6215267;23;20429;-67
2023/04/20 14:40:40;;;;;;;1.23;1.23;;;;;;;;;;6215500;23;20375;-67
2023/04/20 14:43:06;;;;;;;1.10;1.10;;;;;;;;;;6216430;23;20542;-66